Terminal Aerodrome Forecast
Issued by NWS

Home | Current Version | Previous Version | Text Only | Print | Product List | Glossary On
Versions: 1 2 3 4 5 6 7 8 9 10 11 12 13 14 15 16 17 18 19 20 21 22 23 24
757
FTUS45 KBOI 301720
TAFJER
TAF
KJER 301720Z 3018/3118 25014G24KT P6SM SCT250
     FM302100 25018G28KT P6SM SCT250
     FM310300 23011KT P6SM FEW250
     FM311000 08008KT P6SM SKC=

USA.gov is the U.S. government's official web portal to all federal, state and local government web resources and services.